RJNY(METAR)
08/23 01:00
METAR RJNY 221600Z 25009KT 9999 FEW020 BKN150 BKN/// 27/21 Q1011 RMK
1CU020 6AC150 A2988=
戻る
トップページへ戻る
IMOC Co,.Ltd.